Time;durP1;ratioP1;P1;durP2;ratioP2;P2;SDS_P1;SDS_P2;PMS_P1;PMS_P2;Temp;Humidity;BMP_temperature;BMP_pressure;BME280_temperature;BME280_humidity;BME280_pressure;Samples;Min_cycle;Max_cycle;Signal;HPM_P1;HPM_P2
2023/05/21 00:01:04;;;;;;;6.72;4.82;;;;;;;;;;5026045;28;20049;-73
2023/05/21 00:03:31;;;;;;;6.45;4.65;;;;;;;;;;5026990;28;20045;-73
2023/05/21 00:05:57;;;;;;;10.93;4.88;;;;;;;;;;5023102;28;20049;-73
2023/05/21 00:08:23;;;;;;;8.63;4.80;;;;;;;;;;5022434;28;20077;-72
2023/05/21 00:10:49;;;;;;;11.52;5.10;;;;;;;;;;5021885;28;20038;-72
2023/05/21 00:13:15;;;;;;;7.38;5.30;;;;;;;;;;5027977;28;20045;-72
2023/05/21 00:15:41;;;;;;;7.78;4.45;;;;;;;;;;5027238;28;20049;-73
2023/05/21 00:18:07;;;;;;;8.27;4.90;;;;;;;;;;5023669;28;20061;-72
2023/05/21 00:20:34;;;;;;;6.25;4.43;;;;;;;;;;5023874;28;20076;-72
2023/05/21 00:23:04;;;;;;;6.18;4.38;;;;;;;;;;5020013;28;20479;-72
2023/05/21 00:25:30;;;;;;;6.38;4.50;;;;;;;;;;5024493;28;20058;-71
2023/05/21 00:27:56;;;;;;;6.72;4.90;;;;;;;;;;5021576;28;20046;-72
2023/05/21 00:30:22;;;;;;;5.55;4.32;;;;;;;;;;5022020;28;20045;-71
2023/05/21 00:32:48;;;;;;;6.35;4.60;;;;;;;;;;5023477;28;20051;-71
2023/05/21 00:35:14;;;;;;;6.32;4.40;;;;;;;;;;5018582;28;20463;-72
2023/05/21 00:37:41;;;;;;;7.40;5.05;;;;;;;;;;5022319;28;20060;-71
2023/05/21 00:40:08;;;;;;;6.07;4.65;;;;;;;;;;5022466;28;20044;-71
2023/05/21 00:42:38;;;;;;;7.13;4.40;;;;;;;;;;5021070;28;22311;-72
2023/05/21 00:45:08;;;;;;;7.13;4.90;;;;;;;;;;5022377;28;20076;-72
2023/05/21 00:47:34;;;;;;;7.40;5.10;;;;;;;;;;5023734;28;20187;-71
2023/05/21 00:50:01;;;;;;;6.55;4.90;;;;;;;;;;5021954;28;20091;-72
2023/05/21 00:52:27;;;;;;;10.07;5.57;;;;;;;;;;5028313;28;20060;-72
2023/05/21 00:54:54;;;;;;;6.38;4.90;;;;;;;;;;5015684;28;20034;-71
2023/05/21 00:57:21;;;;;;;5.35;4.75;;;;;;;;;;5021814;28;20493;-72
2023/05/21 00:59:51;;;;;;;6.03;4.47;;;;;;;;;;5030710;28;20052;-71
2023/05/21 01:02:17;;;;;;;4.95;4.50;;;;;;;;;;5025639;28;20041;-72
2023/05/21 01:04:46;;;;;;;4.50;4.07;;;;;;;;;;5025220;28;20050;-71
2023/05/21 01:07:13;;;;;;;6.95;4.60;;;;;;;;;;5023271;28;20369;-71
2023/05/21 01:09:40;;;;;;;7.35;4.43;;;;;;;;;;5028919;28;20531;-71
2023/05/21 01:12:07;;;;;;;5.53;4.60;;;;;;;;;;5024431;28;20046;-71
2023/05/21 01:14:33;;;;;;;5.47;4.47;;;;;;;;;;5026536;28;20481;-72
2023/05/21 01:17:00;;;;;;;6.13;5.05;;;;;;;;;;5030104;28;20060;-71
2023/05/21 01:19:27;;;;;;;6.43;5.18;;;;;;;;;;5024834;28;20053;-72
2023/05/21 01:22:00;;;;;;;5.75;5.07;;;;;;;;;;5019464;28;20054;-71
2023/05/21 01:24:26;;;;;;;5.22;4.72;;;;;;;;;;5020120;28;20390;-72
2023/05/21 01:26:52;;;;;;;5.28;4.78;;;;;;;;;;5021320;28;20048;-71
2023/05/21 01:29:18;;;;;;;6.32;4.82;;;;;;;;;;5019498;28;20044;-72
2023/05/21 01:31:44;;;;;;;5.95;4.88;;;;;;;;;;5018953;28;20037;-72
2023/05/21 01:34:11;;;;;;;7.28;5.18;;;;;;;;;;5021083;28;20306;-71
2023/05/21 01:36:41;;;;;;;5.95;4.75;;;;;;;;;;5019387;28;20055;-72
2023/05/21 01:39:15;;;;;;;6.32;5.00;;;;;;;;;;5018005;28;20042;-71
2023/05/21 01:41:43;;;;;;;7.90;5.22;;;;;;;;;;5022522;28;20389;-71
2023/05/21 01:44:09;;;;;;;6.95;5.03;;;;;;;;;;5022825;28;20546;-71
2023/05/21 01:46:35;;;;;;;7.22;4.68;;;;;;;;;;5017963;28;20064;-73
2023/05/21 01:49:02;;;;;;;5.65;4.80;;;;;;;;;;5026362;28;20083;-73
2023/05/21 01:51:28;;;;;;;5.75;5.10;;;;;;;;;;5020593;28;20124;-73
2023/05/21 01:53:54;;;;;;;7.50;5.03;;;;;;;;;;5018489;28;20055;-73
2023/05/21 01:56:24;;;;;;;5.72;5.07;;;;;;;;;;5020639;28;21660;-73
2023/05/21 01:58:50;;;;;;;6.00;4.82;;;;;;;;;;5035207;28;20050;-73
2023/05/21 02:01:16;;;;;;;5.68;4.85;;;;;;;;;;5018102;28;20041;-73
2023/05/21 02:03:42;;;;;;;7.57;5.43;;;;;;;;;;5025151;28;20052;-73
2023/05/21 02:06:08;;;;;;;5.82;4.70;;;;;;;;;;5021212;28;20045;-73
2023/05/21 02:08:34;;;;;;;6.50;5.25;;;;;;;;;;5021657;28;20042;-73
2023/05/21 02:11:00;;;;;;;8.13;5.65;;;;;;;;;;5022426;28;20045;-73
2023/05/21 02:13:28;;;;;;;6.88;4.82;;;;;;;;;;5019875;28;20512;-73
2023/05/21 02:15:54;;;;;;;7.50;5.38;;;;;;;;;;5020465;28;20033;-73
2023/05/21 02:18:20;;;;;;;6.60;5.38;;;;;;;;;;5018529;28;20049;-73
2023/05/21 02:20:47;;;;;;;6.18;5.57;;;;;;;;;;5024697;28;20037;-72
2023/05/21 02:23:13;;;;;;;7.22;5.18;;;;;;;;;;5025041;28;20060;-72
2023/05/21 02:25:39;;;;;;;6.57;5.32;;;;;;;;;;5023864;28;20048;-72
2023/05/21 02:28:05;;;;;;;7.45;5.63;;;;;;;;;;5023891;28;20409;-71
2023/05/21 02:30:31;;;;;;;7.05;5.45;;;;;;;;;;5024469;28;20041;-72
2023/05/21 02:32:57;;;;;;;7.80;5.40;;;;;;;;;;5024770;28;20042;-72
2023/05/21 02:35:23;;;;;;;7.15;5.13;;;;;;;;;;5025617;28;20532;-72
2023/05/21 02:37:49;;;;;;;7.65;5.90;;;;;;;;;;5027549;28;20033;-72
2023/05/21 02:40:16;;;;;;;8.25;5.85;;;;;;;;;;5023255;28;20049;-71
2023/05/21 02:42:42;;;;;;;7.70;6.03;;;;;;;;;;5023770;28;20136;-72
2023/05/21 02:45:09;;;;;;;9.68;6.05;;;;;;;;;;5022373;28;24058;-71
2023/05/21 02:47:35;;;;;;;8.00;5.55;;;;;;;;;;5023934;28;20045;-72
2023/05/21 02:50:01;;;;;;;7.38;5.78;;;;;;;;;;5026297;28;20048;-72
2023/05/21 02:52:27;;;;;;;8.50;6.50;;;;;;;;;;5032611;28;20046;-72
2023/05/21 02:54:53;;;;;;;7.28;5.93;;;;;;;;;;5025474;28;20492;-72
2023/05/21 02:57:19;;;;;;;7.72;5.75;;;;;;;;;;5032976;28;20049;-73
2023/05/21 02:59:45;;;;;;;9.63;6.50;;;;;;;;;;5029653;28;20064;-72
2023/05/21 03:02:11;;;;;;;10.68;6.88;;;;;;;;;;5034190;28;20089;-72
2023/05/21 03:04:37;;;;;;;9.32;6.97;;;;;;;;;;5025522;28;20076;-72
2023/05/21 03:07:04;;;;;;;10.60;6.57;;;;;;;;;;5030402;28;20046;-72
2023/05/21 03:09:30;;;;;;;12.93;7.25;;;;;;;;;;5019282;28;20103;-72
2023/05/21 03:11:56;;;;;;;11.90;7.20;;;;;;;;;;5014013;28;20405;-72
2023/05/21 03:14:23;;;;;;;12.10;7.20;;;;;;;;;;5016443;28;20049;-72
2023/05/21 03:16:50;;;;;;;11.55;6.35;;;;;;;;;;5022473;28;20053;-72
2023/05/21 03:19:16;;;;;;;15.15;6.25;;;;;;;;;;5031893;28;20046;-72
2023/05/21 03:21:43;;;;;;;9.52;6.10;;;;;;;;;;5025617;28;20501;-72
2023/05/21 03:24:12;;;;;;;9.05;6.05;;;;;;;;;;5021751;28;20088;-72
2023/05/21 03:26:38;;;;;;;8.93;5.43;;;;;;;;;;5021419;28;20072;-71
2023/05/21 03:29:04;;;;;;;12.52;5.88;;;;;;;;;;5023765;28;20041;-71
2023/05/21 03:31:30;;;;;;;8.13;5.72;;;;;;;;;;5022358;28;20060;-72
2023/05/21 03:33:56;;;;;;;9.55;5.90;;;;;;;;;;5023270;28;20048;-72
2023/05/21 03:36:22;;;;;;;13.82;6.20;;;;;;;;;;5024579;28;20073;-72
2023/05/21 03:38:48;;;;;;;10.38;5.68;;;;;;;;;;5024592;28;20084;-72
2023/05/21 03:41:14;;;;;;;7.35;5.72;;;;;;;;;;5023004;28;20064;-72
2023/05/21 03:43:40;;;;;;;13.80;6.25;;;;;;;;;;5023353;28;20052;-72
2023/05/21 03:46:06;;;;;;;9.05;5.85;;;;;;;;;;5022266;28;20054;-72
2023/05/21 03:48:32;;;;;;;9.32;5.95;;;;;;;;;;5023443;28;20049;-71
2023/05/21 03:50:58;;;;;;;8.63;5.72;;;;;;;;;;5027447;28;20049;-72
2023/05/21 03:53:24;;;;;;;9.02;6.13;;;;;;;;;;5026810;28;20056;-72
2023/05/21 03:55:53;;;;;;;7.90;5.65;;;;;;;;;;5024434;28;20076;-74
2023/05/21 03:58:23;;;;;;;10.27;6.35;;;;;;;;;;5030129;28;20045;-72
2023/05/21 04:00:49;;;;;;;10.60;5.68;;;;;;;;;;5020531;28;20100;-71
2023/05/21 04:03:16;;;;;;;9.98;5.65;;;;;;;;;;5032249;28;20433;-72
2023/05/21 04:05:42;;;;;;;10.55;5.60;;;;;;;;;;5028006;28;20493;-71
2023/05/21 04:08:09;;;;;;;11.70;5.93;;;;;;;;;;5024971;28;20124;-71
2023/05/21 04:10:35;;;;;;;9.88;5.70;;;;;;;;;;5021613;28;21841;-71
2023/05/21 04:13:01;;;;;;;7.00;5.55;;;;;;;;;;5027869;28;20096;-71
2023/05/21 04:15:27;;;;;;;9.30;5.45;;;;;;;;;;5018853;28;20100;-72
2023/05/21 04:17:53;;;;;;;9.43;5.40;;;;;;;;;;5023392;28;20054;-72
2023/05/21 04:20:19;;;;;;;10.38;5.93;;;;;;;;;;5020891;28;20041;-72
2023/05/21 04:22:45;;;;;;;9.98;5.85;;;;;;;;;;5032029;28;20420;-71
2023/05/21 04:25:11;;;;;;;10.05;6.03;;;;;;;;;;5032320;28;20049;-71
2023/05/21 04:27:37;;;;;;;10.65;5.78;;;;;;;;;;5032077;28;20416;-71
2023/05/21 04:30:04;;;;;;;11.98;6.45;;;;;;;;;;5027633;28;20045;-71
2023/05/21 04:32:32;;;;;;;11.73;6.10;;;;;;;;;;5029493;28;20087;-72
2023/05/21 04:34:59;;;;;;;10.52;5.43;;;;;;;;;;5031337;28;20059;-71
2023/05/21 04:37:26;;;;;;;9.07;5.63;;;;;;;;;;5024691;28;20124;-71
2023/05/21 04:39:54;;;;;;;9.95;5.65;;;;;;;;;;5023567;28;20073;-71
2023/05/21 04:42:22;;;;;;;15.57;5.78;;;;;;;;;;5021660;28;20052;-72
2023/05/21 04:44:49;;;;;;;10.68;5.72;;;;;;;;;;5023476;28;20063;-71
2023/05/21 04:47:17;;;;;;;11.10;5.60;;;;;;;;;;5022678;28;20052;-71
2023/05/21 04:49:43;;;;;;;11.18;5.90;;;;;;;;;;5021451;28;20045;-71
2023/05/21 04:52:09;;;;;;;10.07;5.88;;;;;;;;;;5025161;28;20041;-70
2023/05/21 04:54:37;;;;;;;14.00;5.65;;;;;;;;;;5028274;28;20547;-71
2023/05/21 04:57:04;;;;;;;12.55;5.68;;;;;;;;;;5018296;28;20500;-71
2023/05/21 04:59:33;;;;;;;11.63;5.90;;;;;;;;;;5022674;28;20519;-72
2023/05/21 05:01:59;;;;;;;10.38;6.13;;;;;;;;;;5031539;28;20041;-71
2023/05/21 05:04:25;;;;;;;8.85;5.18;;;;;;;;;;5023406;28;20045;-71
2023/05/21 05:06:51;;;;;;;10.77;5.20;;;;;;;;;;5031057;28;20414;-71
2023/05/21 05:09:17;;;;;;;12.38;5.32;;;;;;;;;;5028421;28;20056;-72
2023/05/21 05:11:43;;;;;;;11.38;5.40;;;;;;;;;;5029470;28;20037;-71
2023/05/21 05:14:09;;;;;;;8.98;4.88;;;;;;;;;;5030137;28;20041;-71
2023/05/21 05:16:35;;;;;;;11.25;5.22;;;;;;;;;;5023746;28;20409;-71
2023/05/21 05:19:01;;;;;;;12.38;5.22;;;;;;;;;;5029149;28;20049;-72
2023/05/21 05:21:27;;;;;;;9.70;5.38;;;;;;;;;;5019466;28;20049;-71
2023/05/21 05:23:53;;;;;;;8.10;5.05;;;;;;;;;;5019660;28;20038;-71
2023/05/21 05:26:20;;;;;;;10.63;4.95;;;;;;;;;;5026078;28;20046;-71
2023/05/21 05:28:46;;;;;;;8.98;4.75;;;;;;;;;;5019058;28;20050;-71
2023/05/21 05:31:12;;;;;;;11.18;4.80;;;;;;;;;;5019864;28;20045;-71
2023/05/21 05:33:39;;;;;;;8.00;5.03;;;;;;;;;;5021941;28;20040;-71
2023/05/21 05:36:05;;;;;;;9.68;4.80;;;;;;;;;;5022219;28;20053;-71
2023/05/21 05:38:31;;;;;;;11.07;4.82;;;;;;;;;;5020792;28;20045;-72
2023/05/21 05:40:57;;;;;;;8.68;5.10;;;;;;;;;;5025851;28;20059;-72
2023/05/21 05:43:25;;;;;;;9.23;4.97;;;;;;;;;;5019378;28;20049;-71
2023/05/21 05:45:51;;;;;;;11.32;4.32;;;;;;;;;;5020141;28;20057;-71
2023/05/21 05:48:17;;;;;;;10.80;5.15;;;;;;;;;;5019141;28;20125;-72
2023/05/21 05:50:43;;;;;;;6.75;4.22;;;;;;;;;;5021805;28;20139;-71
2023/05/21 05:53:12;;;;;;;9.52;4.50;;;;;;;;;;5020491;28;20065;-72
2023/05/21 05:55:38;;;;;;;9.88;5.07;;;;;;;;;;5022242;28;20071;-71
2023/05/21 05:58:04;;;;;;;11.20;4.78;;;;;;;;;;5036626;28;20494;-71
2023/05/21 06:00:30;;;;;;;11.40;4.97;;;;;;;;;;5019988;28;20049;-72
2023/05/21 06:02:56;;;;;;;7.90;4.88;;;;;;;;;;5023478;28;20117;-71
2023/05/21 06:05:22;;;;;;;7.88;4.60;;;;;;;;;;5021365;28;20121;-71
2023/05/21 06:07:51;;;;;;;9.00;4.65;;;;;;;;;;5020722;28;20041;-71
2023/05/21 06:10:19;;;;;;;11.85;4.82;;;;;;;;;;5024569;28;20971;-72
2023/05/21 06:12:45;;;;;;;9.02;4.88;;;;;;;;;;5024857;28;20050;-71
2023/05/21 06:15:13;;;;;;;8.48;4.65;;;;;;;;;;5021581;28;20516;-71
2023/05/21 06:17:39;;;;;;;7.97;4.60;;;;;;;;;;5018703;28;20053;-71
2023/05/21 06:20:08;;;;;;;11.80;5.25;;;;;;;;;;5021164;28;20869;-70
2023/05/21 06:22:35;;;;;;;7.97;4.88;;;;;;;;;;5021445;28;20058;-71
2023/05/21 06:25:01;;;;;;;12.63;4.63;;;;;;;;;;5025508;28;20075;-72
2023/05/21 06:27:27;;;;;;;8.75;5.57;;;;;;;;;;5021956;28;20056;-71
2023/05/21 06:29:53;;;;;;;9.88;5.03;;;;;;;;;;5021568;28;20049;-71
2023/05/21 06:32:22;;;;;;;10.50;5.00;;;;;;;;;;5018771;28;20049;-72
2023/05/21 06:34:48;;;;;;;9.73;5.47;;;;;;;;;;5021908;28;20183;-72
2023/05/21 06:37:18;;;;;;;10.80;4.53;;;;;;;;;;5020843;28;20061;-71
2023/05/21 06:39:44;;;;;;;11.73;5.53;;;;;;;;;;5019749;28;20088;-71
2023/05/21 06:42:10;;;;;;;11.18;4.70;;;;;;;;;;5022617;28;20042;-71
2023/05/21 06:44:36;;;;;;;7.75;4.93;;;;;;;;;;5021725;28;20520;-71
2023/05/21 06:47:02;;;;;;;8.18;4.80;;;;;;;;;;5020963;28;20045;-72
2023/05/21 06:49:28;;;;;;;9.00;4.45;;;;;;;;;;5017201;28;20424;-72
2023/05/21 06:51:54;;;;;;;11.07;5.55;;;;;;;;;;5027121;28;20477;-72
2023/05/21 06:54:20;;;;;;;10.55;5.22;;;;;;;;;;5028660;28;20567;-72
2023/05/21 06:56:46;;;;;;;10.95;5.05;;;;;;;;;;5029082;28;20045;-71
2023/05/21 06:59:12;;;;;;;8.68;5.32;;;;;;;;;;5028033;28;20091;-71
2023/05/21 07:01:41;;;;;;;10.75;5.28;;;;;;;;;;5031567;28;20068;-72
2023/05/21 07:04:07;;;;;;;8.82;5.13;;;;;;;;;;5025943;28;20050;-72
2023/05/21 07:06:34;;;;;;;11.35;5.32;;;;;;;;;;5026913;28;20092;-72
2023/05/21 07:09:00;;;;;;;7.50;4.90;;;;;;;;;;5022330;28;20033;-72
2023/05/21 07:11:27;;;;;;;8.20;4.40;;;;;;;;;;5049958;28;20091;-72
2023/05/21 07:13:55;;;;;;;7.45;4.65;;;;;;;;;;5033789;28;20088;-72
2023/05/21 07:16:21;;;;;;;9.80;5.03;;;;;;;;;;5015306;28;20054;-72
2023/05/21 07:18:47;;;;;;;7.75;4.80;;;;;;;;;;5031173;28;20405;-73
2023/05/21 07:21:13;;;;;;;8.43;4.22;;;;;;;;;;5027627;28;20489;-73
2023/05/21 07:23:39;;;;;;;6.47;4.43;;;;;;;;;;5023012;28;20029;-72
2023/05/21 07:26:05;;;;;;;11.05;5.07;;;;;;;;;;5023870;28;20424;-74
2023/05/21 07:28:31;;;;;;;6.05;4.38;;;;;;;;;;5020870;28;20157;-74
2023/05/21 07:30:57;;;;;;;8.43;4.72;;;;;;;;;;5022608;28;20120;-73
2023/05/21 07:33:23;;;;;;;7.10;4.55;;;;;;;;;;5022059;28;20492;-73
2023/05/21 07:35:50;;;;;;;9.77;5.10;;;;;;;;;;5020300;28;20050;-73
2023/05/21 07:38:16;;;;;;;8.63;4.55;;;;;;;;;;5016690;28;20099;-73
2023/05/21 07:40:42;;;;;;;11.68;5.40;;;;;;;;;;5022277;28;20489;-73
2023/05/21 07:43:08;;;;;;;8.88;5.55;;;;;;;;;;5025472;28;20522;-73
2023/05/21 07:45:34;;;;;;;9.95;5.13;;;;;;;;;;5024488;28;20513;-72
2023/05/21 07:48:00;;;;;;;9.48;5.10;;;;;;;;;;5023136;28;20080;-74
2023/05/21 07:50:26;;;;;;;7.65;4.93;;;;;;;;;;5022075;28;20049;-73
2023/05/21 07:52:52;;;;;;;5.80;4.28;;;;;;;;;;5019823;28;20080;-73
2023/05/21 07:55:18;;;;;;;7.13;5.00;;;;;;;;;;5027419;28;20464;-73
2023/05/21 07:57:45;;;;;;;7.60;4.65;;;;;;;;;;5024343;28;20492;-73
2023/05/21 08:00:14;;;;;;;7.15;4.47;;;;;;;;;;5027553;28;20046;-72
2023/05/21 08:02:40;;;;;;;8.43;4.75;;;;;;;;;;5032953;28;20061;-73
2023/05/21 08:05:06;;;;;;;9.23;5.05;;;;;;;;;;5022876;28;20048;-72
2023/05/21 08:07:32;;;;;;;8.90;5.05;;;;;;;;;;5022461;28;20417;-73
2023/05/21 08:09:58;;;;;;;7.28;4.38;;;;;;;;;;5012952;28;20163;-72
2023/05/21 08:12:24;;;;;;;8.82;4.53;;;;;;;;;;5026610;28;20102;-73
2023/05/21 08:14:50;;;;;;;9.95;4.78;;;;;;;;;;5033063;28;20053;-73
2023/05/21 08:17:17;;;;;;;9.48;4.78;;;;;;;;;;5028029;28;20080;-73
2023/05/21 08:19:43;;;;;;;7.00;4.85;;;;;;;;;;5024416;28;20175;-72
2023/05/21 08:22:09;;;;;;;8.95;4.25;;;;;;;;;;5024542;28;20041;-72
2023/05/21 08:24:35;;;;;;;8.57;4.15;;;;;;;;;;5023181;28;20041;-73
2023/05/21 08:27:01;;;;;;;8.05;4.03;;;;;;;;;;5022515;28;20053;-73
2023/05/21 08:29:27;;;;;;;8.50;4.47;;;;;;;;;;5022152;28;20374;-73
2023/05/21 08:31:53;;;;;;;8.57;4.72;;;;;;;;;;5025278;28;20858;-73
2023/05/21 08:34:19;;;;;;;9.52;4.68;;;;;;;;;;5022344;28;20435;-73
2023/05/21 08:36:46;;;;;;;9.73;4.43;;;;;;;;;;5019259;28;20041;-73
2023/05/21 08:39:12;;;;;;;8.18;4.28;;;;;;;;;;5030552;28;20053;-72
2023/05/21 08:41:39;;;;;;;9.32;3.90;;;;;;;;;;5028756;28;20091;-72
2023/05/21 08:44:08;;;;;;;9.60;4.72;;;;;;;;;;5022032;28;20037;-71
2023/05/21 08:46:35;;;;;;;7.90;4.07;;;;;;;;;;5019620;28;20499;-72
2023/05/21 08:49:01;;;;;;;6.72;3.90;;;;;;;;;;5016251;28;20057;-73
2023/05/21 08:51:28;;;;;;;8.23;4.18;;;;;;;;;;5044827;28;20049;-72
2023/05/21 08:53:55;;;;;;;7.03;4.22;;;;;;;;;;5026623;28;20127;-72
2023/05/21 08:56:22;;;;;;;5.88;4.00;;;;;;;;;;5026189;28;20042;-72
2023/05/21 08:58:48;;;;;;;5.95;3.95;;;;;;;;;;5032843;28;20389;-72
2023/05/21 09:01:17;;;;;;;6.82;3.85;;;;;;;;;;5030632;28;20033;-71
2023/05/21 09:03:43;;;;;;;8.60;4.68;;;;;;;;;;5027848;28;20136;-71
2023/05/21 09:06:10;;;;;;;5.97;3.70;;;;;;;;;;5030278;28;20045;-71
2023/05/21 09:08:38;;;;;;;6.82;3.90;;;;;;;;;;5023829;28;20088;-71
2023/05/21 09:11:04;;;;;;;6.78;4.10;;;;;;;;;;5020989;28;20056;-72
2023/05/21 09:13:31;;;;;;;6.93;4.28;;;;;;;;;;5021015;28;20045;-72
2023/05/21 09:15:58;;;;;;;6.70;4.18;;;;;;;;;;5020125;28;20038;-72
2023/05/21 09:18:26;;;;;;;4.90;3.40;;;;;;;;;;5021440;28;20065;-71
2023/05/21 09:20:52;;;;;;;8.88;4.60;;;;;;;;;;5017227;28;20057;-72
2023/05/21 09:23:19;;;;;;;7.95;3.70;;;;;;;;;;5017304;28;20045;-72
2023/05/21 09:25:46;;;;;;;6.72;3.40;;;;;;;;;;5021283;28;20132;-72
2023/05/21 09:28:12;;;;;;;7.18;4.13;;;;;;;;;;5018419;28;20498;-72
2023/05/21 09:30:45;;;;;;;10.00;3.80;;;;;;;;;;5022272;28;21878;-71
2023/05/21 09:33:11;;;;;;;7.38;4.28;;;;;;;;;;5022890;28;20057;-71
2023/05/21 09:35:44;;;;;;;5.80;3.97;;;;;;;;;;5020008;28;20457;-72
2023/05/21 09:38:10;;;;;;;9.10;4.10;;;;;;;;;;5017413;28;20049;-72
2023/05/21 09:40:36;;;;;;;8.30;4.68;;;;;;;;;;5022433;28;20099;-72
2023/05/21 09:43:02;;;;;;;7.63;4.80;;;;;;;;;;5017974;28;20099;-72
2023/05/21 09:45:28;;;;;;;7.43;4.75;;;;;;;;;;5020930;28;20678;-72
2023/05/21 09:47:55;;;;;;;9.02;6.65;;;;;;;;;;5023446;28;20045;-72
2023/05/21 09:50:22;;;;;;;5.38;4.10;;;;;;;;;;5020380;28;20409;-72
2023/05/21 09:52:51;;;;;;;8.20;4.32;;;;;;;;;;5021586;28;20038;-72
2023/05/21 09:55:17;;;;;;;7.22;4.30;;;;;;;;;;5022074;28;20512;-72
2023/05/21 09:57:44;;;;;;;6.22;4.40;;;;;;;;;;5020732;28;20192;-71
2023/05/21 10:00:17;;;;;;;7.35;4.57;;;;;;;;;;5022522;28;20046;-71
2023/05/21 10:02:43;;;;;;;;;;;;;;;;;;5024268;28;20041;-72
2023/05/21 10:05:10;;;;;;;9.05;3.95;;;;;;;;;;5018662;28;20251;-71
2023/05/21 10:07:36;;;;;;;5.22;3.78;;;;;;;;;;5020195;28;20042;-72
2023/05/21 10:10:03;;;;;;;6.55;4.38;;;;;;;;;;5023751;28;20443;-72
2023/05/21 10:12:30;;;;;;;6.32;4.35;;;;;;;;;;5019999;28;20057;-72
2023/05/21 10:15:01;;;;;;;5.80;3.95;;;;;;;;;;5020684;28;20050;-72
2023/05/21 10:17:27;;;;;;;7.50;4.32;;;;;;;;;;5018350;28;20049;-72
2023/05/21 10:19:55;;;;;;;6.90;4.40;;;;;;;;;;5023494;28;20172;-72
2023/05/21 10:22:22;;;;;;;8.18;4.20;;;;;;;;;;5019851;28;21648;-72
2023/05/21 10:24:48;;;;;;;8.00;4.05;;;;;;;;;;5023294;28;20053;-71
2023/05/21 10:27:15;;;;;;;7.35;3.90;;;;;;;;;;5016197;28;20052;-71
2023/05/21 10:29:41;;;;;;;5.60;4.03;;;;;;;;;;5021012;28;20388;-70
2023/05/21 10:32:07;;;;;;;8.27;4.20;;;;;;;;;;5020788;28;20160;-70
2023/05/21 10:34:34;;;;;;;5.97;3.70;;;;;;;;;;5020456;28;20118;-71
2023/05/21 10:37:01;;;;;;;7.57;4.07;;;;;;;;;;5019440;28;20124;-71
2023/05/21 10:39:28;;;;;;;9.38;3.88;;;;;;;;;;5011785;28;20049;-70
2023/05/21 10:42:15;;;;;;;4.63;3.80;;;;;;;;;;5035794;28;20041;-72
2023/05/21 10:45:00;;;;;;;4.88;3.58;;;;;;;;;;5023948;28;20052;-71
2023/05/21 10:47:32;;;;;;;5.60;3.50;;;;;;;;;;5021334;28;20053;-72
2023/05/21 10:50:16;;;;;;;6.20;3.72;;;;;;;;;;5029129;28;20045;-71
2023/05/21 10:52:57;;;;;;;6.60;3.70;;;;;;;;;;5032341;28;20049;-70
2023/05/21 10:55:26;;;;;;;5.40;3.65;;;;;;;;;;5027619;28;20053;-70
2023/05/21 10:58:11;;;;;;;7.20;3.40;;;;;;;;;;5044907;28;20053;-70
2023/05/21 11:00:37;;;;;;;4.65;3.25;;;;;;;;;;5023242;28;20038;-71
2023/05/21 11:03:03;;;;;;;5.75;3.08;;;;;;;;;;5024517;28;20049;-71
2023/05/21 11:05:51;;;;;;;6.10;3.28;;;;;;;;;;5034589;28;20581;-70
2023/05/21 11:08:29;;;;;;;7.35;3.50;;;;;;;;;;5029588;28;20049;-71
2023/05/21 11:10:56;;;;;;;6.45;3.38;;;;;;;;;;5023966;28;20049;-70
2023/05/21 11:13:23;;;;;;;7.90;3.65;;;;;;;;;;5030524;28;20038;-71
2023/05/21 11:16:00;;;;;;;7.57;3.25;;;;;;;;;;5030822;28;20488;-71
2023/05/21 11:18:32;;;;;;;6.90;3.10;;;;;;;;;;5027802;28;20056;-73
2023/05/21 11:21:11;;;;;;;5.95;3.08;;;;;;;;;;5018533;28;20765;-80
2023/05/21 11:23:59;;;;;;;7.28;3.45;;;;;;;;;;5021429;28;20048;-77
2023/05/21 11:26:27;;;;;;;4.45;3.17;;;;;;;;;;5022789;28;20069;-78
2023/05/21 11:29:05;;;;;;;11.40;4.93;;;;;;;;;;5023448;28;20409;-77
2023/05/21 11:31:38;;;;;;;7.38;4.07;;;;;;;;;;5020474;28;20707;-78
2023/05/21 11:34:27;;;;;;;6.35;3.63;;;;;;;;;;5022842;28;20063;-77
2023/05/21 11:37:13;;;;;;;9.27;3.67;;;;;;;;;;5023355;28;20045;-78
2023/05/21 11:39:39;;;;;;;6.90;3.92;;;;;;;;;;5022757;28;20037;-78
2023/05/21 11:42:05;;;;;;;7.95;3.90;;;;;;;;;;5021324;28;20136;-77
2023/05/21 11:44:38;;;;;;;8.07;4.13;;;;;;;;;;5019806;28;20182;-78
2023/05/21 11:47:05;;;;;;;4.93;3.50;;;;;;;;;;5022532;28;20068;-79
2023/05/21 11:49:31;;;;;;;7.70;3.70;;;;;;;;;;5023966;28;20550;-79
2023/05/21 11:51:59;;;;;;;8.35;3.78;;;;;;;;;;5024125;28;20167;-78
2023/05/21 11:54:25;;;;;;;7.18;4.03;;;;;;;;;;5022306;28;20057;-78
2023/05/21 11:56:52;;;;;;;7.72;4.18;;;;;;;;;;5024307;28;20049;-79
2023/05/21 11:59:18;;;;;;;6.32;4.03;;;;;;;;;;5038319;28;20072;-78
2023/05/21 12:01:44;;;;;;;11.27;4.60;;;;;;;;;;5022893;28;20077;-78
2023/05/21 12:04:11;;;;;;;7.85;3.92;;;;;;;;;;5018205;28;20068;-77
2023/05/21 12:06:42;;;;;;;8.13;4.32;;;;;;;;;;5025518;28;20398;-78
2023/05/21 12:09:09;;;;;;;24.90;16.55;;;;;;;;;;5023615;28;20041;-78
2023/05/21 12:11:41;;;;;;;7.68;4.45;;;;;;;;;;5021638;28;20128;-78
2023/05/21 12:14:10;;;;;;;7.68;4.47;;;;;;;;;;5021762;28;20042;-78
2023/05/21 12:16:36;;;;;;;9.70;4.10;;;;;;;;;;5024466;28;20042;-78
2023/05/21 12:19:03;;;;;;;8.82;4.03;;;;;;;;;;5023435;28;20045;-78
2023/05/21 12:21:32;;;;;;;9.05;4.45;;;;;;;;;;5021979;28;20138;-78
2023/05/21 12:23:58;;;;;;;8.00;4.70;;;;;;;;;;5026691;28;20136;-80
2023/05/21 12:26:25;;;;;;;9.15;4.38;;;;;;;;;;5021066;28;20050;-80
2023/05/21 12:28:52;;;;;;;8.85;4.20;;;;;;;;;;5022397;28;20523;-79
2023/05/21 12:31:18;;;;;;;6.50;4.32;;;;;;;;;;5025679;28;20433;-78
2023/05/21 12:33:46;;;;;;;10.02;5.38;;;;;;;;;;5030159;28;20045;-78
2023/05/21 12:36:21;;;;;;;8.70;4.45;;;;;;;;;;5029148;28;20064;-79
2023/05/21 12:38:47;;;;;;;6.95;4.78;;;;;;;;;;5030993;28;20042;-79
2023/05/21 12:41:13;;;;;;;7.75;4.63;;;;;;;;;;5023968;28;20128;-79
2023/05/21 12:43:39;;;;;;;10.07;5.00;;;;;;;;;;5025850;28;20091;-80
2023/05/21 12:46:05;;;;;;;7.88;4.18;;;;;;;;;;5038532;28;20485;-80
2023/05/21 12:48:32;;;;;;;7.63;4.78;;;;;;;;;;5028665;28;20045;-82
2023/05/21 12:51:01;;;;;;;9.40;4.55;;;;;;;;;;5030361;28;20044;-80
2023/05/21 12:53:36;;;;;;;8.90;4.10;;;;;;;;;;5031490;28;20057;-80
2023/05/21 12:56:11;;;;;;;9.45;5.28;;;;;;;;;;5026715;28;20477;-79
2023/05/21 12:58:37;;;;;;;7.50;4.28;;;;;;;;;;5032467;28;20527;-79
2023/05/21 13:01:10;;;;;;;11.50;4.75;;;;;;;;;;5021928;28;20045;-79
2023/05/21 13:03:40;;;;;;;7.82;4.20;;;;;;;;;;5025367;28;20047;-79
2023/05/21 13:06:07;;;;;;;6.70;4.47;;;;;;;;;;5031722;28;20460;-79
2023/05/21 13:08:33;;;;;;;10.07;4.97;;;;;;;;;;5030151;28;20489;-79
2023/05/21 13:11:03;;;;;;;8.63;4.63;;;;;;;;;;5019518;28;20053;-80
2023/05/21 13:13:29;;;;;;;9.90;4.72;;;;;;;;;;5031240;28;20045;-79
2023/05/21 13:15:55;;;;;;;8.43;4.90;;;;;;;;;;5018289;28;20050;-80
2023/05/21 13:18:21;;;;;;;12.07;5.03;;;;;;;;;;5011535;28;20049;-80
2023/05/21 13:20:48;;;;;;;12.27;7.80;;;;;;;;;;5026141;28;20052;-79
2023/05/21 13:23:17;;;;;;;10.68;4.68;;;;;;;;;;5020145;28;20045;-79
2023/05/21 13:25:43;;;;;;;10.73;4.78;;;;;;;;;;5025687;28;20196;-79
2023/05/21 13:28:11;;;;;;;7.97;4.50;;;;;;;;;;5029573;28;20052;-78
2023/05/21 13:30:38;;;;;;;9.73;4.38;;;;;;;;;;5028575;28;20056;-79
2023/05/21 13:33:05;;;;;;;10.50;5.20;;;;;;;;;;5024661;28;20385;-79
2023/05/21 13:35:31;;;;;;;8.85;5.05;;;;;;;;;;5027849;28;20057;-79
2023/05/21 13:37:57;;;;;;;7.38;4.53;;;;;;;;;;5020497;28;20049;-79
2023/05/21 13:40:23;;;;;;;6.72;3.97;;;;;;;;;;5028801;28;20389;-77
2023/05/21 13:42:49;;;;;;;7.53;4.22;;;;;;;;;;5029949;28;20033;-76
2023/05/21 13:45:16;;;;;;;8.13;4.15;;;;;;;;;;5026004;28;20072;-76
2023/05/21 13:47:43;;;;;;;8.02;4.43;;;;;;;;;;5026984;28;20049;-77
2023/05/21 13:50:09;;;;;;;7.63;4.55;;;;;;;;;;5026269;28;20049;-77
2023/05/21 13:52:35;;;;;;;8.52;4.70;;;;;;;;;;5018359;28;20037;-77
2023/05/21 13:55:02;;;;;;;7.03;4.18;;;;;;;;;;5025897;28;20041;-77
2023/05/21 13:57:29;;;;;;;6.40;4.30;;;;;;;;;;5027245;28;20097;-76
2023/05/21 13:59:55;;;;;;;6.40;4.28;;;;;;;;;;5029790;28;20040;-77
2023/05/21 14:02:21;;;;;;;7.10;4.50;;;;;;;;;;5026845;28;20068;-79
2023/05/21 14:04:48;;;;;;;9.02;4.55;;;;;;;;;;5028042;28;20045;-76
2023/05/21 14:07:14;;;;;;;6.78;4.80;;;;;;;;;;5025844;28;20469;-76
2023/05/21 14:09:41;;;;;;;8.50;4.60;;;;;;;;;;5028777;28;20049;-76
2023/05/21 14:12:07;;;;;;;8.13;5.20;;;;;;;;;;5023125;28;20396;-76
2023/05/21 14:14:33;;;;;;;7.90;4.85;;;;;;;;;;5029037;28;20599;-76
2023/05/21 14:16:59;;;;;;;9.80;5.13;;;;;;;;;;5033899;28;20107;-78
2023/05/21 14:19:25;;;;;;;6.85;4.75;;;;;;;;;;5025648;28;20103;-76
2023/05/21 14:21:52;;;;;;;9.48;5.28;;;;;;;;;;5028953;28;20050;-76
2023/05/21 14:24:18;;;;;;;8.50;5.28;;;;;;;;;;5024454;28;20081;-77
2023/05/21 14:26:44;;;;;;;6.53;4.55;;;;;;;;;;5029605;28;20045;-76
2023/05/21 14:29:10;;;;;;;7.82;4.80;;;;;;;;;;5025950;28;20081;-76
2023/05/21 14:31:36;;;;;;;8.07;5.13;;;;;;;;;;5033268;28;20045;-77
2023/05/21 14:34:02;;;;;;;8.07;5.03;;;;;;;;;;5024524;28;20052;-76
2023/05/21 14:36:28;;;;;;;7.03;4.72;;;;;;;;;;5031947;28;20076;-77
2023/05/21 14:38:55;;;;;;;9.40;5.40;;;;;;;;;;5033362;28;20048;-76
2023/05/21 14:41:25;;;;;;;9.02;5.32;;;;;;;;;;5030902;28;20045;-76